createdAt,value
2019-01-28T00:00:34.635Z,-1.20
2019-01-28T00:03:03.327Z,-1.20
2019-01-28T00:05:31.647Z,-1.20
2019-01-28T00:08:00.347Z,-1.10
2019-01-28T00:10:28.672Z,-1.10
2019-01-28T00:12:57.135Z,-1.10
2019-01-28T00:15:25.499Z,-1.10
2019-01-28T00:17:53.907Z,-1.00
2019-01-28T00:20:22.291Z,-1.10
2019-01-28T00:22:50.767Z,-1.10
2019-01-28T00:25:19.095Z,-1.10
2019-01-28T00:27:47.510Z,-1.10
2019-01-28T00:30:16.074Z,-1.00
2019-01-28T00:32:44.513Z,-1.10
2019-01-28T00:35:13.526Z,-1.10
2019-01-28T00:37:42.107Z,-1.00
2019-01-28T00:40:10.511Z,-1.00
2019-01-28T00:42:38.955Z,-1.00
2019-01-28T00:45:09.535Z,-1.00
2019-01-28T00:47:37.944Z,-1.00
2019-01-28T00:50:07.099Z,-1.00
2019-01-28T00:52:35.438Z,-1.00
2019-01-28T00:55:04.242Z,-1.00
2019-01-28T00:57:32.848Z,-1.00
2019-01-28T01:00:01.239Z,-1.00
2019-01-28T01:02:29.606Z,-1.00
2019-01-28T01:04:57.954Z,-1.00
2019-01-28T01:07:26.366Z,-1.00
2019-01-28T01:09:54.674Z,-1.00
2019-01-28T01:12:23.008Z,-1.00
2019-01-28T01:14:51.491Z,-1.00
2019-01-28T01:17:19.795Z,-1.00
2019-01-28T01:19:48.145Z,-1.00
2019-01-28T01:22:16.615Z,-1.10
2019-01-28T01:24:45.326Z,-1.00
2019-01-28T01:27:13.684Z,-1.00
2019-01-28T01:29:42.332Z,-1.00
2019-01-28T01:32:10.910Z,-1.00
2019-01-28T01:34:39.291Z,-1.10
2019-01-28T01:37:07.632Z,-1.00
2019-01-28T01:39:35.975Z,-1.00
2019-01-28T01:42:04.539Z,-1.00
2019-01-28T01:44:32.879Z,-1.00
2019-01-28T01:47:01.286Z,-1.00
2019-01-28T01:49:29.591Z,-1.00
2019-01-28T01:51:57.941Z,-1.00
2019-01-28T01:54:26.316Z,-1.00
2019-01-28T01:56:54.611Z,-1.00
2019-01-28T01:59:23.121Z,-1.00
2019-01-28T02:01:51.432Z,-1.00
2019-01-28T02:04:19.751Z,-1.00
2019-01-28T02:06:48.100Z,-1.00
2019-01-28T02:09:16.481Z,-0.90
2019-01-28T02:11:44.778Z,-0.90
2019-01-28T02:14:13.105Z,-0.90
2019-01-28T02:16:41.444Z,-0.90
2019-01-28T02:19:09.851Z,-0.90
2019-01-28T02:21:38.251Z,-0.90
2019-01-28T02:24:06.954Z,-0.90
2019-01-28T02:26:35.798Z,-0.90
2019-01-28T02:29:04.270Z,-0.90
2019-01-28T02:31:32.579Z,-0.90
2019-01-28T02:34:00.986Z,-0.90
2019-01-28T02:36:29.529Z,-0.90
2019-01-28T02:38:58.142Z,-0.90
2019-01-28T02:41:26.566Z,-0.90
2019-01-28T02:43:54.806Z,-0.90
2019-01-28T02:46:23.269Z,-0.90
2019-01-28T02:48:51.624Z,-0.90
2019-01-28T02:51:19.961Z,-0.90
2019-01-28T02:53:48.366Z,-0.90
2019-01-28T02:56:16.786Z,-0.90
2019-01-28T02:58:45.160Z,-0.90
2019-01-28T03:01:13.548Z,-0.90
2019-01-28T03:03:41.845Z,-0.90
2019-01-28T03:06:10.293Z,-0.90
2019-01-28T03:08:38.677Z,-0.80
2019-01-28T03:11:07.005Z,-0.80
2019-01-28T03:13:35.691Z,-0.80
2019-01-28T03:16:04.155Z,-0.80
2019-01-28T03:18:32.479Z,-0.80
2019-01-28T03:21:00.867Z,-0.80
2019-01-28T03:23:29.227Z,-0.80
2019-01-28T03:25:57.561Z,-0.80
2019-01-28T03:28:26.099Z,-0.80
2019-01-28T03:30:54.486Z,-0.80
2019-01-28T03:33:22.907Z,-0.80
2019-01-28T03:35:51.378Z,-0.70
2019-01-28T03:38:19.779Z,-0.70
2019-01-28T03:40:48.708Z,-0.70
2019-01-28T03:43:17.200Z,-0.70
2019-01-28T03:45:45.566Z,-0.70
2019-01-28T03:48:13.950Z,-0.70
2019-01-28T03:50:42.363Z,-0.70
2019-01-28T03:53:10.796Z,-0.70
2019-01-28T03:55:39.239Z,-0.70
2019-01-28T03:58:07.576Z,-0.70
2019-01-28T04:00:35.970Z,-0.80
2019-01-28T04:03:04.518Z,-0.80
2019-01-28T04:05:32.888Z,-0.80
2019-01-28T04:08:01.212Z,-0.70
2019-01-28T04:10:29.645Z,-0.70
2019-01-28T04:12:58.014Z,-0.70
2019-01-28T04:15:26.463Z,-0.70
2019-01-28T04:17:54.842Z,-0.70
2019-01-28T04:20:24.231Z,-0.70
2019-01-28T04:22:52.753Z,-0.70
2019-01-28T04:25:21.441Z,-0.70
2019-01-28T04:27:49.772Z,-0.70
2019-01-28T04:30:20.525Z,-0.70
2019-01-28T04:32:48.837Z,-0.80
2019-01-28T04:35:17.311Z,-0.80
2019-01-28T04:37:45.823Z,-0.80
2019-01-28T04:40:14.218Z,-0.80
2019-01-28T04:42:42.652Z,-0.80
2019-01-28T04:45:13.384Z,-0.80
2019-01-28T04:47:41.725Z,-0.80
2019-01-28T04:50:12.556Z,-0.90
2019-01-28T04:52:40.885Z,-0.90
2019-01-28T04:55:09.605Z,-0.90
2019-01-28T04:57:38.003Z,-0.90
2019-01-28T05:00:10.064Z,-0.90
2019-01-28T05:02:38.477Z,-0.90
2019-01-28T05:05:07.071Z,-1.00
2019-01-28T05:07:35.464Z,-1.00
2019-01-28T05:10:04.028Z,-1.00
2019-01-28T05:12:32.360Z,-1.00
2019-01-28T05:15:00.695Z,-1.00
2019-01-28T05:17:29.357Z,-1.00
2019-01-28T05:19:58.039Z,-1.00
2019-01-28T05:22:26.449Z,-1.00
2019-01-28T05:24:54.773Z,-1.00
2019-01-28T05:27:23.064Z,-1.00
2019-01-28T05:29:51.421Z,-1.00
2019-01-28T05:32:20.076Z,-1.00
2019-01-28T05:34:48.615Z,-1.00
2019-01-28T05:37:17.041Z,-1.00
2019-01-28T05:39:45.428Z,-1.00
2019-01-28T05:42:13.955Z,-1.00
2019-01-28T05:44:42.322Z,-1.00
2019-01-28T05:47:10.678Z,-1.00
2019-01-28T05:49:39.146Z,-1.00
2019-01-28T05:52:07.514Z,-1.00
2019-01-28T05:54:35.908Z,-1.00
2019-01-28T05:57:04.340Z,-1.00
2019-01-28T05:59:32.638Z,-1.10
2019-01-28T06:02:00.956Z,-1.10
2019-01-28T06:04:29.396Z,-1.00
2019-01-28T06:06:57.832Z,-1.10
2019-01-28T06:09:26.306Z,-1.10
2019-01-28T06:11:54.893Z,-1.10
2019-01-28T06:14:23.242Z,-1.10
2019-01-28T06:16:51.688Z,-1.10
2019-01-28T06:19:20.308Z,-1.10
2019-01-28T06:21:49.112Z,-1.10
2019-01-28T06:24:17.522Z,-1.10
2019-01-28T06:26:45.877Z,-1.10
2019-01-28T06:29:14.432Z,-1.10
2019-01-28T06:31:42.940Z,-1.10
2019-01-28T06:34:11.521Z,-1.10
2019-01-28T06:36:40.815Z,-1.10
2019-01-28T06:39:10.176Z,-1.10
2019-01-28T06:41:38.826Z,-1.10
2019-01-28T06:44:07.404Z,-1.10
2019-01-28T06:46:35.869Z,-1.10
2019-01-28T06:49:04.244Z,-1.10
2019-01-28T06:51:32.622Z,-1.10
2019-01-28T06:54:00.976Z,-1.10
2019-01-28T06:56:29.305Z,-1.10
2019-01-28T06:58:57.754Z,-1.10
2019-01-28T07:01:26.065Z,-1.10
2019-01-28T07:03:54.380Z,-1.10
2019-01-28T07:06:22.784Z,-1.10
2019-01-28T07:08:51.067Z,-1.10
2019-01-28T07:11:19.375Z,-1.10
2019-01-28T07:13:47.719Z,-1.10
2019-01-28T07:16:16.021Z,-1.10
2019-01-28T07:18:44.430Z,-1.10
2019-01-28T07:21:12.858Z,-1.10
2019-01-28T07:23:41.227Z,-1.10
2019-01-28T07:26:09.584Z,-1.10
2019-01-28T07:28:37.926Z,-1.10
2019-01-28T07:31:06.354Z,-1.10
2019-01-28T07:33:34.706Z,-1.10
2019-01-28T07:36:03.570Z,-1.10
2019-01-28T07:38:31.893Z,-1.10
2019-01-28T07:41:00.235Z,-1.10
2019-01-28T07:43:28.852Z,-1.10
2019-01-28T07:45:57.191Z,-1.10
2019-01-28T07:48:25.570Z,-1.10
2019-01-28T07:50:54.007Z,-1.10
2019-01-28T07:53:22.318Z,-1.10
2019-01-28T07:55:50.727Z,-1.10
2019-01-28T07:58:19.046Z,-1.10
2019-01-28T08:00:47.589Z,-1.10
2019-01-28T08:03:16.024Z,-1.00
2019-01-28T08:05:44.353Z,-1.00
2019-01-28T08:08:12.849Z,-1.00
2019-01-28T08:10:41.180Z,-1.00
2019-01-28T08:13:09.566Z,-1.00
2019-01-28T08:15:38.069Z,-1.00
2019-01-28T08:18:10.817Z,-0.90
2019-01-28T08:20:34.903Z,-0.90
2019-01-28T08:23:03.500Z,-0.80
2019-01-28T08:25:31.877Z,-0.80
2019-01-28T08:28:00.193Z,-0.80
2019-01-28T08:30:33.594Z,-0.80
2019-01-28T08:33:03.027Z,-0.80
2019-01-28T08:35:31.234Z,-0.70
2019-01-28T08:38:00.084Z,-0.70
2019-01-28T08:40:28.575Z,-0.70
2019-01-28T08:42:56.924Z,-0.60
2019-01-28T08:45:25.279Z,-0.60
2019-01-28T08:47:53.743Z,-0.50
2019-01-28T08:50:22.866Z,-0.40
2019-01-28T08:52:51.413Z,-0.30
2019-01-28T08:55:21.022Z,-0.30
2019-01-28T08:57:49.548Z,-0.20
2019-01-28T09:00:20.239Z,-0.10
2019-01-28T09:02:48.875Z,-0.10
2019-01-28T09:05:17.603Z,-0.10
2019-01-28T09:07:45.976Z,-0.10
2019-01-28T09:10:14.926Z,-0.10
2019-01-28T09:12:43.926Z,-0.10
2019-01-28T09:15:14.097Z,-0.10
2019-01-28T09:17:42.458Z,-0.10
2019-01-28T09:20:14.460Z,-0.20
2019-01-28T09:22:43.012Z,-0.20
2019-01-28T09:25:11.691Z,-0.20
2019-01-28T09:27:40.079Z,-0.20
2019-01-28T09:30:10.900Z,-0.20
2019-01-28T09:32:39.241Z,-0.20
2019-01-28T09:35:07.860Z,-0.20
2019-01-28T09:37:36.238Z,-0.30
2019-01-28T09:40:06.570Z,-0.20
2019-01-28T09:42:34.939Z,-0.30
2019-01-28T09:45:03.559Z,-0.20
2019-01-28T09:47:31.890Z,-0.20
2019-01-28T09:50:00.466Z,-0.20
2019-01-28T09:52:28.852Z,-0.20
2019-01-28T09:54:57.154Z,-0.20
2019-01-28T09:57:25.646Z,-0.20
2019-01-28T09:59:54.044Z,-0.20
2019-01-28T10:02:23.683Z,-0.20
2019-01-28T10:04:50.972Z,-0.20
2019-01-28T10:07:19.350Z,-0.20
2019-01-28T10:09:47.733Z,-0.10
2019-01-28T10:12:16.259Z,0.00
2019-01-28T10:14:44.568Z,0.00
2019-01-28T10:17:12.940Z,0.10
2019-01-28T10:19:41.309Z,0.00
2019-01-28T10:22:09.701Z,0.00
2019-01-28T10:24:38.011Z,0.10
2019-01-28T10:27:06.389Z,0.10
2019-01-28T10:29:34.718Z,0.20
2019-01-28T10:32:03.094Z,0.30
2019-01-28T10:34:31.465Z,0.30
2019-01-28T10:36:59.801Z,0.40
2019-01-28T10:39:28.138Z,0.50
2019-01-28T10:41:56.921Z,0.40
2019-01-28T10:44:25.299Z,0.40
2019-01-28T10:46:53.714Z,0.50
2019-01-28T10:49:22.368Z,0.60
2019-01-28T10:51:50.693Z,0.60
2019-01-28T10:54:19.033Z,0.60
2019-01-28T10:56:47.690Z,0.60
2019-01-28T10:59:16.153Z,0.70
2019-01-28T11:01:44.612Z,0.60
2019-01-28T11:04:12.936Z,0.60
2019-01-28T11:06:41.262Z,0.60
2019-01-28T11:09:09.581Z,0.50
2019-01-28T11:11:37.925Z,0.60
2019-01-28T11:14:06.444Z,0.70
2019-01-28T11:16:34.947Z,0.80
2019-01-28T11:19:03.556Z,0.80
2019-01-28T11:21:31.861Z,0.70
2019-01-28T11:24:00.217Z,0.80
2019-01-28T11:26:28.686Z,0.80
2019-01-28T11:28:57.015Z,0.80
2019-01-28T11:31:25.496Z,0.80
2019-01-28T11:33:53.826Z,0.90
2019-01-28T11:36:22.308Z,0.90
2019-01-28T11:38:50.627Z,0.80
2019-01-28T11:41:19.133Z,0.70
2019-01-28T11:43:47.623Z,0.60
2019-01-28T11:46:16.020Z,0.60
2019-01-28T11:48:44.257Z,0.70
2019-01-28T11:51:12.624Z,0.70
2019-01-28T11:53:40.958Z,0.70
2019-01-28T11:56:09.316Z,0.70
2019-01-28T11:58:37.690Z,0.70
2019-01-28T12:01:18.528Z,0.70
2019-01-28T12:03:46.955Z,0.80
2019-01-28T12:06:15.275Z,0.80
2019-01-28T12:08:43.588Z,0.80
2019-01-28T12:11:11.979Z,0.70
2019-01-28T12:13:40.414Z,0.80
2019-01-28T12:16:08.742Z,0.80
2019-01-28T12:18:37.188Z,0.90
2019-01-28T12:21:05.660Z,1.10
2019-01-28T12:23:34.703Z,1.00
2019-01-28T12:26:02.593Z,1.00
2019-01-28T12:28:30.975Z,1.20
2019-01-28T12:30:59.292Z,1.10
2019-01-28T12:33:27.665Z,1.00
2019-01-28T12:35:56.030Z,1.10
2019-01-28T12:38:24.363Z,1.10
2019-01-28T12:40:52.689Z,1.00
2019-01-28T12:43:21.252Z,1.00
2019-01-28T12:45:50.238Z,0.90
2019-01-28T12:48:18.571Z,0.90
2019-01-28T12:50:47.011Z,0.80
2019-01-28T12:53:15.332Z,0.70
2019-01-28T12:55:43.730Z,0.70
2019-01-28T12:58:12.091Z,0.60
2019-01-28T13:00:42.351Z,0.50
2019-01-28T13:03:11.429Z,0.50
2019-01-28T13:05:40.053Z,0.50
2019-01-28T13:08:08.426Z,0.40
2019-01-28T13:10:36.812Z,0.50
2019-01-28T13:13:05.214Z,0.40
2019-01-28T13:15:33.701Z,0.40
2019-01-28T13:18:02.088Z,0.30
2019-01-28T13:20:30.599Z,0.30
2019-01-28T13:22:58.914Z,0.30
2019-01-28T13:25:27.803Z,0.30
2019-01-28T13:27:56.174Z,0.30
2019-01-28T13:30:26.873Z,0.30
2019-01-28T13:32:55.887Z,0.30
2019-01-28T13:35:24.253Z,0.20
2019-01-28T13:37:52.630Z,0.20
2019-01-28T13:40:21.037Z,0.20
2019-01-28T13:42:49.442Z,0.20
2019-01-28T13:45:18.684Z,0.30
2019-01-28T13:47:47.360Z,0.30
2019-01-28T13:50:18.275Z,0.30
2019-01-28T13:52:46.801Z,0.20
2019-01-28T13:55:15.312Z,0.20
2019-01-28T13:57:43.614Z,0.20
2019-01-28T14:00:17.245Z,0.20
2019-01-28T14:02:45.674Z,0.20
2019-01-28T14:05:14.237Z,0.20
2019-01-28T14:07:42.676Z,0.20
2019-01-28T14:10:11.944Z,0.20
2019-01-28T14:12:40.325Z,0.20
2019-01-28T14:15:12.396Z,0.20
2019-01-28T14:17:40.751Z,0.20
2019-01-28T14:20:12.196Z,0.20
2019-01-28T14:22:40.617Z,0.20
2019-01-28T14:25:10.324Z,0.20
2019-01-28T14:27:38.802Z,0.20
2019-01-28T14:30:09.750Z,0.30
2019-01-28T14:32:38.097Z,0.20
2019-01-28T14:35:06.673Z,0.20
2019-01-28T14:37:35.152Z,0.20
2019-01-28T14:40:03.873Z,0.30
2019-01-28T14:42:32.337Z,0.30
2019-01-28T14:45:00.729Z,0.20
2019-01-28T14:47:29.312Z,0.30
2019-01-28T14:49:57.842Z,0.20
2019-01-28T14:52:26.183Z,0.20
2019-01-28T14:54:56.329Z,0.20
2019-01-28T14:57:23.133Z,0.20
2019-01-28T14:59:51.777Z,0.30
2019-01-28T15:02:20.422Z,0.20
2019-01-28T15:04:48.723Z,0.20
2019-01-28T15:07:17.040Z,0.20
2019-01-28T15:09:45.426Z,0.20
2019-01-28T15:12:13.967Z,0.30
2019-01-28T15:14:42.323Z,0.20
2019-01-28T15:17:10.762Z,0.30
2019-01-28T15:19:39.271Z,0.20
2019-01-28T15:22:07.720Z,0.20
2019-01-28T15:24:36.082Z,0.20
2019-01-28T15:27:04.461Z,0.20
2019-01-28T15:29:32.956Z,0.30
2019-01-28T15:32:01.282Z,0.30
2019-01-28T15:34:29.611Z,0.30
2019-01-28T15:36:58.398Z,0.30
2019-01-28T15:39:27.804Z,0.30
2019-01-28T15:41:56.173Z,0.30
2019-01-28T15:44:24.587Z,0.30
2019-01-28T15:46:53.135Z,0.30
2019-01-28T15:49:21.548Z,0.30
2019-01-28T15:51:50.201Z,0.30
2019-01-28T15:54:18.530Z,0.30
2019-01-28T15:56:46.950Z,0.30
2019-01-28T15:59:15.331Z,0.40
2019-01-28T16:01:43.660Z,0.40
2019-01-28T16:04:12.083Z,0.40
2019-01-28T16:06:40.444Z,0.40
2019-01-28T16:09:09.609Z,0.40
2019-01-28T16:11:38.039Z,0.40
2019-01-28T16:14:06.386Z,0.40
2019-01-28T16:16:34.928Z,0.40
2019-01-28T16:19:03.293Z,0.40
2019-01-28T16:21:31.650Z,0.40
2019-01-28T16:23:59.997Z,0.40
2019-01-28T16:26:28.374Z,0.40
2019-01-28T16:28:56.710Z,0.40
2019-01-28T16:31:25.155Z,0.40
2019-01-28T16:33:53.739Z,0.40
2019-01-28T16:36:22.064Z,0.40
2019-01-28T16:38:50.602Z,0.40
2019-01-28T16:41:18.981Z,0.40
2019-01-28T16:43:47.326Z,0.40
2019-01-28T16:46:16.047Z,0.40
2019-01-28T16:48:44.386Z,0.40
2019-01-28T16:51:13.040Z,0.40
2019-01-28T16:53:41.496Z,0.40
2019-01-28T16:56:09.821Z,0.40
2019-01-28T16:58:38.230Z,0.50
2019-01-28T17:01:06.649Z,0.50
2019-01-28T17:03:34.994Z,0.50
2019-01-28T17:06:03.375Z,0.50
2019-01-28T17:08:31.736Z,0.50
2019-01-28T17:11:00.048Z,0.50
2019-01-28T17:13:28.386Z,0.50
2019-01-28T17:15:56.878Z,0.50
2019-01-28T17:18:25.207Z,0.50
2019-01-28T17:20:53.550Z,0.60
2019-01-28T17:23:21.956Z,0.60
2019-01-28T17:25:50.270Z,0.60
2019-01-28T17:28:18.620Z,0.60
2019-01-28T17:30:49.116Z,0.60
2019-01-28T17:33:17.611Z,0.70
2019-01-28T17:35:45.920Z,0.70
2019-01-28T17:38:14.300Z,0.70
2019-01-28T17:40:43.616Z,0.70
2019-01-28T17:43:13.064Z,0.70
2019-01-28T17:45:41.508Z,0.70
2019-01-28T17:48:10.050Z,0.70
2019-01-28T17:50:43.408Z,0.70
2019-01-28T17:53:06.815Z,0.80
2019-01-28T17:55:35.631Z,0.80
2019-01-28T17:58:04.315Z,0.70
2019-01-28T18:00:36.602Z,0.70
2019-01-28T18:03:05.044Z,0.70
2019-01-28T18:05:33.446Z,0.70
2019-01-28T18:08:01.752Z,0.80
2019-01-28T18:10:30.342Z,0.80
2019-01-28T18:12:58.722Z,0.80
2019-01-28T18:15:27.189Z,0.80
2019-01-28T18:17:55.594Z,0.80
2019-01-28T18:20:24.177Z,0.80
2019-01-28T18:22:52.541Z,0.80
2019-01-28T18:25:23.082Z,0.80
2019-01-28T18:27:51.386Z,0.80
2019-01-28T18:30:25.332Z,0.80
2019-01-28T18:32:53.630Z,0.80
2019-01-28T18:35:22.166Z,0.90
2019-01-28T18:37:50.609Z,0.90
2019-01-28T18:40:19.123Z,0.80
2019-01-28T18:42:47.570Z,0.90
2019-01-28T18:45:18.260Z,0.90
2019-01-28T18:47:44.407Z,0.90
2019-01-28T18:50:14.535Z,0.90
2019-01-28T18:52:42.962Z,0.90
2019-01-28T18:55:11.402Z,0.90
2019-01-28T18:57:39.888Z,0.90
2019-01-28T19:00:13.934Z,0.90
2019-01-28T19:02:42.271Z,0.90
2019-01-28T19:05:11.603Z,0.90
2019-01-28T19:07:44.386Z,0.90
2019-01-28T19:10:23.819Z,0.90
2019-01-28T19:13:03.467Z,0.90
2019-01-28T19:16:08.165Z,0.90
2019-01-28T19:18:40.851Z,0.90
2019-01-28T19:21:16.082Z,0.90
2019-01-28T19:23:44.579Z,0.90
2019-01-28T19:26:12.955Z,0.90
2019-01-28T19:28:41.346Z,0.90
2019-01-28T19:31:09.745Z,0.90
2019-01-28T19:33:38.094Z,0.90
2019-01-28T19:36:06.794Z,0.90
2019-01-28T19:38:35.195Z,0.90
2019-01-28T19:41:03.552Z,0.90
2019-01-28T19:43:31.885Z,0.90
2019-01-28T19:46:00.321Z,0.90
2019-01-28T19:48:28.736Z,0.90
2019-01-28T19:50:57.297Z,0.90
2019-01-28T19:53:25.892Z,0.90
2019-01-28T19:55:54.472Z,0.90
2019-01-28T19:58:22.836Z,0.90
2019-01-28T20:00:51.188Z,0.90
2019-01-28T20:03:19.555Z,1.00
2019-01-28T20:05:48.081Z,1.00
2019-01-28T20:08:16.614Z,1.00
2019-01-28T20:10:45.003Z,0.90
2019-01-28T20:13:13.376Z,1.00
2019-01-28T20:15:41.688Z,1.00
2019-01-28T20:18:10.126Z,1.00
2019-01-28T20:20:38.519Z,1.10
2019-01-28T20:23:06.860Z,1.10
2019-01-28T20:25:35.739Z,1.10
2019-01-28T20:28:03.717Z,1.00
2019-01-28T20:30:32.068Z,1.10
2019-01-28T20:33:00.571Z,1.10
2019-01-28T20:35:30.136Z,1.10
2019-01-28T20:37:57.459Z,1.10
2019-01-28T20:40:25.769Z,1.10
2019-01-28T20:42:54.142Z,1.10
2019-01-28T20:45:23.345Z,1.10
2019-01-28T20:47:51.921Z,1.10
2019-01-28T20:50:22.334Z,1.10
2019-01-28T20:52:50.789Z,1.10
2019-01-28T20:55:19.188Z,1.10
2019-01-28T20:57:47.657Z,1.10
2019-01-28T21:00:17.971Z,1.20
2019-01-28T21:02:46.444Z,1.20
2019-01-28T21:05:16.053Z,1.20
2019-01-28T21:07:44.743Z,1.20
2019-01-28T21:10:14.251Z,1.20
2019-01-28T21:12:42.750Z,1.20
2019-01-28T21:15:12.889Z,1.20
2019-01-28T21:17:41.328Z,1.20
2019-01-28T21:20:12.093Z,1.20
2019-01-28T21:22:40.490Z,1.20
2019-01-28T21:25:11.350Z,1.20
2019-01-28T21:27:39.638Z,1.30
2019-01-28T21:30:10.351Z,1.30
2019-01-28T21:32:38.733Z,1.20
2019-01-28T21:35:08.533Z,1.20
2019-01-28T21:37:44.135Z,1.20
2019-01-28T21:40:12.697Z,1.20
2019-01-28T21:42:41.001Z,1.20
2019-01-28T21:45:10.075Z,1.20
2019-01-28T21:47:38.444Z,1.20
2019-01-28T21:50:07.843Z,1.20
2019-01-28T21:52:36.233Z,1.30
2019-01-28T21:55:05.149Z,1.30
2019-01-28T21:57:33.494Z,1.30
2019-01-28T22:00:01.908Z,1.30
2019-01-28T22:02:30.203Z,1.30
2019-01-28T22:04:58.624Z,1.30
2019-01-28T22:07:26.940Z,1.30
2019-01-28T22:09:55.687Z,1.30
2019-01-28T22:12:24.097Z,1.30
2019-01-28T22:14:52.396Z,1.30
2019-01-28T22:17:20.703Z,1.30
2019-01-28T22:19:49.069Z,1.30
2019-01-28T22:22:17.399Z,1.20
2019-01-28T22:24:45.703Z,1.30
2019-01-28T22:27:14.069Z,1.20
2019-01-28T22:29:42.398Z,1.20
2019-01-28T22:32:10.773Z,1.30
2019-01-28T22:34:47.512Z,1.20
2019-01-28T22:37:07.551Z,1.20
2019-01-28T22:39:35.900Z,1.20
2019-01-28T22:42:04.437Z,1.30
2019-01-28T22:44:32.804Z,1.20
2019-01-28T22:47:01.150Z,1.20
2019-01-28T22:49:29.435Z,1.20
2019-01-28T22:51:57.754Z,1.20
2019-01-28T22:54:26.076Z,1.20
2019-01-28T22:56:54.406Z,1.20
2019-01-28T22:59:22.932Z,1.20
2019-01-28T23:01:51.299Z,1.20
2019-01-28T23:04:19.695Z,1.20
2019-01-28T23:06:48.020Z,1.20
2019-01-28T23:09:16.358Z,1.30
2019-01-28T23:11:44.792Z,1.30
2019-01-28T23:14:13.131Z,1.40
2019-01-28T23:16:41.524Z,1.40
2019-01-28T23:19:09.824Z,1.40
2019-01-28T23:21:38.891Z,1.40
2019-01-28T23:24:07.281Z,1.50
2019-01-28T23:26:35.700Z,1.50
2019-01-28T23:29:04.109Z,1.50
2019-01-28T23:31:32.471Z,1.50
2019-01-28T23:34:00.851Z,1.70
2019-01-28T23:36:29.189Z,1.80
2019-01-28T23:38:57.585Z,1.80
2019-01-28T23:41:26.083Z,1.80
2019-01-28T23:43:54.805Z,1.80
2019-01-28T23:46:23.152Z,1.80
2019-01-28T23:48:51.535Z,1.80
2019-01-28T23:51:20.038Z,1.80
2019-01-28T23:53:48.467Z,1.80
2019-01-28T23:56:16.841Z,1.80
2019-01-28T23:58:45.380Z,1.90
